Accueil
METAR-TAF:

METAR-TAF

Aéroports :

Dobbiaco, Italie

latitude: 46-44N, longitude: 012-13E, altitude: 1222 m

Observation

Le bulletin a été fait il y a 22 minutes, à 06:55 UTC
Vent 3 kt de ouest
Température -4°C
Humidité 86%
Pression 1021 hPa
Visibilité 10 km ou plus
Quelques nuages à une hauteur de 3000 ft

METAR: LIVD 210655Z 27003KT 9999 FEW030 M04/M06 Q1021 RMK FEW VIS MIN 9999

Heure: 08:17 (07:17 UTC)


TAF: absent

Observations et prévisions météorologiques de plus de 4000 aéroports (messages METAR et TAF).

Les stations disponibles sont représentées par des disques jaunes et rouges sur la carte.

Passer la souris dessus pour voir le nom de la station.

Cliquer dessus pour voir les observations et prévisions météorologiques.

Pour changer de carte: cliquez sur les boutons verts avec une croix noire pour zoomer, sur le bouton vert avec un tiret pour effectuer un zoom arrière, ou sur les flèches vertes pour les cartes adjacentes.


METAR-TAF: